Time;durP1;ratioP1;P1;durP2;ratioP2;P2;SDS_P1;SDS_P2;PMS_P1;PMS_P2;Temp;Humidity;BMP_temperature;BMP_pressure;BME280_temperature;BME280_humidity;BME280_pressure;Samples;Min_cycle;Max_cycle;Signal;HPM_P1;HPM_P2
2022/03/11 00:00:37;;;;;;;30.25;15.40;;;-2.60;99.90;;;;;;5036231;28;20124;-93
2022/03/11 00:03:04;;;;;;;25.98;14.82;;;-2.60;99.90;;;;;;5036205;28;20045;-94
2022/03/11 00:05:31;;;;;;;29.88;15.52;;;-2.70;99.90;;;;;;5036313;28;20467;-93
2022/03/11 00:07:57;;;;;;;28.33;15.05;;;-2.70;99.90;;;;;;5036074;28;20057;-93
2022/03/11 00:10:24;;;;;;;27.27;16.05;;;-2.70;99.90;;;;;;5036123;28;20083;-92
2022/03/11 00:12:51;;;;;;;28.63;15.43;;;-2.70;99.90;;;;;;5035443;28;20077;-93
2022/03/11 00:15:18;;;;;;;31.02;16.17;;;-2.70;99.90;;;;;;5036100;28;20132;-93
2022/03/11 00:17:45;;;;;;;30.98;15.98;;;-2.70;99.90;;;;;;5035887;28;20057;-93
2022/03/11 00:20:12;;;;;;;29.25;15.60;;;-2.70;99.90;;;;;;5035924;28;20132;-93
2022/03/11 00:22:38;;;;;;;30.23;15.57;;;-2.70;99.90;;;;;;5035712;28;20561;-92
2022/03/11 00:25:05;;;;;;;32.13;16.35;;;-2.80;99.90;;;;;;5035979;28;20124;-93
2022/03/11 00:27:32;;;;;;;27.63;14.70;;;-2.80;99.90;;;;;;5036128;28;20144;-93
2022/03/11 00:29:59;;;;;;;31.95;16.45;;;-2.80;99.90;;;;;;5035945;28;20041;-93
2022/03/11 00:32:25;;;;;;;33.53;16.80;;;-2.90;99.90;;;;;;5035704;28;20049;-92
2022/03/11 00:34:52;;;;;;;28.98;15.73;;;-2.90;99.90;;;;;;5035753;28;20124;-92
2022/03/11 00:37:19;;;;;;;30.10;16.15;;;-2.90;99.90;;;;;;5036150;28;20143;-92
2022/03/11 00:39:46;;;;;;;27.88;15.57;;;-2.90;99.90;;;;;;5035761;28;20132;-92
2022/03/11 00:42:12;;;;;;;28.20;16.15;;;-2.90;99.90;;;;;;5035757;28;20136;-92
2022/03/11 00:44:40;;;;;;;28.67;15.70;;;-3.00;99.90;;;;;;5036094;28;20053;-92
2022/03/11 00:47:07;;;;;;;34.78;15.68;;;-3.00;99.90;;;;;;5042925;28;20076;-92
2022/03/11 00:49:38;;;;;;;31.90;15.98;;;-3.10;99.90;;;;;;5050446;28;20053;-92
2022/03/11 00:52:05;;;;;;;27.38;15.30;;;-3.10;99.90;;;;;;5039575;28;20049;-92
2022/03/11 00:54:32;;;;;;;31.25;15.82;;;-3.20;99.90;;;;;;5039554;28;20053;-92
2022/03/11 00:56:59;;;;;;;38.33;17.45;;;-3.20;99.90;;;;;;5039578;28;20053;-92
2022/03/11 00:59:25;;;;;;;31.42;15.85;;;-3.20;99.90;;;;;;5039370;28;20551;-92
2022/03/11 01:01:52;;;;;;;28.88;16.55;;;-3.20;99.90;;;;;;5039600;28;20104;-92
2022/03/11 01:04:19;;;;;;;31.48;16.13;;;-3.20;99.90;;;;;;5039690;28;20476;-92
2022/03/11 01:06:46;;;;;;;30.65;16.25;;;-3.20;99.90;;;;;;5039735;28;20131;-92
2022/03/11 01:09:13;;;;;;;28.33;15.80;;;-3.10;99.90;;;;;;5039485;28;20083;-91
2022/03/11 01:11:39;;;;;;;28.95;14.88;;;-3.20;99.90;;;;;;5039331;28;20049;-92
2022/03/11 01:14:06;;;;;;;30.15;16.25;;;-3.20;99.90;;;;;;5038950;28;20123;-91
2022/03/11 01:16:33;;;;;;;27.75;15.68;;;-3.30;99.90;;;;;;5039334;28;20049;-92
2022/03/11 01:19:01;;;;;;;30.30;15.43;;;-3.30;99.90;;;;;;5039226;28;20080;-91
2022/03/11 01:21:27;;;;;;;33.10;15.77;;;-3.40;99.90;;;;;;5039302;28;20136;-91
2022/03/11 01:23:54;;;;;;;31.20;16.02;;;-3.40;99.90;;;;;;5039207;28;20506;-91
2022/03/11 01:26:21;;;;;;;32.58;16.33;;;-3.40;99.90;;;;;;5039135;28;20067;-91
2022/03/11 01:28:49;;;;;;;31.30;16.98;;;-3.40;99.90;;;;;;5038829;28;20059;-91
2022/03/11 01:31:17;;;;;;;37.53;17.00;;;-3.40;99.90;;;;;;5038626;28;20052;-91
2022/03/11 01:33:45;;;;;;;28.80;15.88;;;-3.40;99.90;;;;;;5038804;28;20098;-91
2022/03/11 01:36:13;;;;;;;28.77;16.27;;;-3.40;99.90;;;;;;5038987;28;20061;-91
2022/03/11 01:38:41;;;;;;;30.48;15.82;;;-3.50;99.90;;;;;;5038864;28;20068;-91
2022/03/11 01:41:09;;;;;;;30.90;16.10;;;-3.50;99.90;;;;;;5038777;28;20137;-91
2022/03/11 01:43:58;;;;;;;30.05;16.02;;;-3.60;99.90;;;;;;5038294;28;20049;-92
2022/03/11 01:46:25;;;;;;;30.20;16.30;;;-3.70;99.90;;;;;;5038835;28;20053;-91
2022/03/11 01:48:51;;;;;;;30.77;17.02;;;-3.70;99.90;;;;;;5038681;28;20064;-91
2022/03/11 01:51:19;;;;;;;29.95;16.15;;;-3.80;99.90;;;;;;5038600;28;20059;-90
2022/03/11 01:53:46;;;;;;;31.55;15.55;;;-3.90;99.90;;;;;;5038065;28;20073;-90
2022/03/11 01:56:13;;;;;;;27.98;15.70;;;-3.90;99.90;;;;;;5038300;28;20135;-90
2022/03/11 01:58:40;;;;;;;40.75;16.88;;;-3.90;99.90;;;;;;5038536;28;20130;-90
2022/03/11 02:01:09;;;;;;;31.45;15.35;;;-4.00;99.90;;;;;;5037533;28;20055;-90
2022/03/11 02:03:36;;;;;;;29.92;16.42;;;-4.10;99.90;;;;;;5038340;28;20052;-91
2022/03/11 02:06:04;;;;;;;33.97;17.25;;;-4.10;99.90;;;;;;5038190;28;20048;-90
2022/03/11 02:08:30;;;;;;;32.75;16.58;;;-4.20;99.90;;;;;;5038172;28;20057;-90
2022/03/11 02:10:57;;;;;;;30.55;15.90;;;-4.30;99.90;;;;;;5038003;28;20057;-90
2022/03/11 02:13:24;;;;;;;27.90;15.38;;;-4.40;99.90;;;;;;5037631;28;20571;-90
2022/03/11 02:15:51;;;;;;;29.33;16.55;;;-4.50;99.90;;;;;;5038133;28;20120;-90
2022/03/11 02:18:18;;;;;;;31.75;16.08;;;-4.50;99.90;;;;;;5038042;28;20053;-89
2022/03/11 02:20:46;;;;;;;29.48;15.88;;;-4.50;99.90;;;;;;5037866;28;20045;-89
2022/03/11 02:23:15;;;;;;;34.50;17.10;;;-4.60;99.90;;;;;;5038215;28;20143;-89
2022/03/11 02:25:41;;;;;;;33.33;16.55;;;-4.50;99.90;;;;;;5038372;28;20492;-88
2022/03/11 02:28:08;;;;;;;32.47;16.58;;;-4.50;99.90;;;;;;5038242;28;20063;-89
2022/03/11 02:30:35;;;;;;;31.58;16.23;;;-4.50;99.90;;;;;;5037639;28;20136;-89
2022/03/11 02:33:01;;;;;;;33.00;16.45;;;-4.40;99.90;;;;;;5037807;28;20561;-89
2022/03/11 02:35:28;;;;;;;31.00;16.48;;;-4.50;99.90;;;;;;5038010;28;20074;-90
2022/03/11 02:37:55;;;;;;;28.52;16.08;;;-4.50;99.90;;;;;;5037691;28;20545;-89
2022/03/11 02:40:22;;;;;;;28.98;15.65;;;-4.50;99.90;;;;;;5037799;28;20071;-89
2022/03/11 02:42:48;;;;;;;33.10;16.98;;;-4.50;99.90;;;;;;5037319;28;20057;-89
2022/03/11 02:45:15;;;;;;;31.42;16.77;;;-4.50;99.90;;;;;;5037842;28;20109;-89
2022/03/11 02:47:42;;;;;;;33.17;16.70;;;-4.60;99.90;;;;;;5037763;28;20380;-89
2022/03/11 02:50:09;;;;;;;33.90;16.52;;;-4.60;99.90;;;;;;5037213;28;20550;-89
2022/03/11 02:52:36;;;;;;;30.33;16.33;;;-4.60;99.90;;;;;;5037070;28;20107;-88
2022/03/11 02:55:03;;;;;;;39.22;17.25;;;-4.60;99.90;;;;;;5037130;28;20135;-88
2022/03/11 02:57:29;;;;;;;32.25;15.82;;;-4.60;99.90;;;;;;5037563;28;20051;-88
2022/03/11 02:59:56;;;;;;;27.65;15.55;;;-4.70;99.90;;;;;;5037304;28;20083;-88
2022/03/11 03:02:23;;;;;;;32.58;15.75;;;-4.70;99.90;;;;;;5037590;28;20143;-89
2022/03/11 03:04:49;;;;;;;30.00;15.63;;;-4.70;99.90;;;;;;5036976;28;20434;-89
2022/03/11 03:07:16;;;;;;;30.98;15.60;;;-4.70;99.90;;;;;;5037225;28;20137;-88
2022/03/11 03:09:43;;;;;;;31.08;15.25;;;-4.80;99.90;;;;;;5037378;28;20056;-89
2022/03/11 03:12:10;;;;;;;28.27;15.35;;;-4.80;99.90;;;;;;5038183;28;20132;-88
2022/03/11 03:14:38;;;;;;;30.27;15.30;;;-4.90;99.90;;;;;;5037903;28;20059;-88
2022/03/11 03:17:05;;;;;;;27.20;15.43;;;-4.90;99.90;;;;;;5036771;28;20051;-89
2022/03/11 03:19:32;;;;;;;31.83;15.60;;;-4.90;99.90;;;;;;5036671;28;20504;-88
2022/03/11 03:21:59;;;;;;;26.48;15.63;;;-4.90;99.90;;;;;;5036881;28;20049;-89
2022/03/11 03:24:26;;;;;;;32.58;15.43;;;-5.00;99.90;;;;;;5036751;28;20382;-88
2022/03/11 03:26:54;;;;;;;33.75;17.80;;;-5.00;99.90;;;;;;5036591;28;20128;-88
2022/03/11 03:29:22;;;;;;;29.30;16.45;;;-5.10;99.90;;;;;;5036862;28;20057;-88
2022/03/11 03:31:49;;;;;;;28.48;15.77;;;-5.10;99.90;;;;;;5036166;28;20131;-88
2022/03/11 03:34:15;;;;;;;29.45;14.45;;;-5.10;99.90;;;;;;5036325;28;20049;-88
2022/03/11 03:36:42;;;;;;;32.00;16.58;;;-5.10;99.90;;;;;;5036452;28;20136;-88
2022/03/11 03:39:09;;;;;;;30.30;15.95;;;-5.10;99.90;;;;;;5036705;28;20141;-88
2022/03/11 03:41:35;;;;;;;28.60;14.55;;;-5.20;99.90;;;;;;5036185;28;20504;-88
2022/03/11 03:44:02;;;;;;;28.83;16.20;;;-5.30;99.90;;;;;;5036206;28;20131;-88
2022/03/11 03:46:29;;;;;;;26.52;15.45;;;-5.40;99.90;;;;;;5036221;28;20232;-88
2022/03/11 03:48:56;;;;;;;32.25;15.10;;;-5.50;99.90;;;;;;5036373;28;20075;-88
2022/03/11 03:51:23;;;;;;;28.73;15.63;;;-5.50;99.90;;;;;;5036660;28;20143;-88
2022/03/11 03:53:49;;;;;;;27.10;14.50;;;-5.50;99.90;;;;;;5036036;28;20355;-88
2022/03/11 03:56:16;;;;;;;27.23;14.63;;;-5.60;99.90;;;;;;5036177;28;20163;-88
2022/03/11 03:58:43;;;;;;;34.38;15.25;;;-5.60;99.90;;;;;;5036127;28;20056;-88
2022/03/11 04:01:10;;;;;;;31.33;15.23;;;-5.70;99.90;;;;;;5035956;28;20056;-88
2022/03/11 04:03:37;;;;;;;24.70;13.55;;;-5.80;99.90;;;;;;5036384;28;20064;-88
2022/03/11 04:06:04;;;;;;;30.70;13.52;;;-5.90;99.90;;;;;;5035948;28;20068;-88
2022/03/11 04:08:32;;;;;;;26.92;14.38;;;-5.80;99.90;;;;;;5035907;28;20080;-87
2022/03/11 04:10:58;;;;;;;36.38;15.38;;;-5.80;99.90;;;;;;5035873;28;20051;-88
2022/03/11 04:13:25;;;;;;;36.88;17.33;;;-5.80;99.90;;;;;;5035212;28;20128;-88
2022/03/11 04:15:52;;;;;;;33.80;16.88;;;-5.70;99.90;;;;;;5035749;28;20044;-88
2022/03/11 04:18:19;;;;;;;37.13;16.10;;;-5.80;99.90;;;;;;5036054;28;20498;-88
2022/03/11 04:20:46;;;;;;;35.47;16.70;;;-5.70;99.90;;;;;;5035813;28;20127;-88
2022/03/11 04:23:13;;;;;;;42.05;19.63;;;-5.80;99.90;;;;;;5035229;28;20045;-88
2022/03/11 04:25:39;;;;;;;37.70;17.60;;;-5.70;99.90;;;;;;5035983;28;20051;-88
2022/03/11 04:28:06;;;;;;;31.17;15.43;;;-5.80;99.90;;;;;;5035323;28;20081;-88
2022/03/11 04:30:33;;;;;;;34.25;15.82;;;-5.80;99.90;;;;;;5035477;28;20061;-88
2022/03/11 04:33:00;;;;;;;31.77;15.40;;;-5.70;99.90;;;;;;5035733;28;20056;-88
2022/03/11 04:35:26;;;;;;;33.88;17.05;;;-5.80;99.90;;;;;;5035751;28;20128;-88
2022/03/11 04:37:53;;;;;;;35.70;15.55;;;-5.80;99.90;;;;;;5035942;28;20139;-88
2022/03/11 04:40:20;;;;;;;26.33;14.05;;;-5.90;99.90;;;;;;5035599;28;20085;-88
2022/03/11 04:42:47;;;;;;;29.77;13.55;;;-5.90;99.90;;;;;;5035563;28;20166;-88
2022/03/11 04:45:13;;;;;;;27.48;14.40;;;-6.00;99.90;;;;;;5035962;28;20106;-88
2022/03/11 04:47:40;;;;;;;32.95;14.32;;;-6.10;99.90;;;;;;5035695;28;20135;-88
2022/03/11 04:50:07;;;;;;;29.65;14.43;;;-6.00;99.90;;;;;;5035848;28;20059;-88
2022/03/11 04:52:34;;;;;;;42.55;21.10;;;-6.10;99.90;;;;;;5035478;28;20052;-88
2022/03/11 04:55:02;;;;;;;48.13;24.45;;;-6.20;99.90;;;;;;5035419;28;20139;-88
2022/03/11 04:57:28;;;;;;;34.88;18.55;;;-6.20;99.90;;;;;;5035469;28;20053;-88
2022/03/11 04:59:55;;;;;;;35.50;18.17;;;-6.20;99.90;;;;;;5035647;28;20056;-88
2022/03/11 05:02:26;;;;;;;28.88;15.07;;;-6.10;99.90;;;;;;5036226;28;20136;-88
2022/03/11 05:04:54;;;;;;;25.92;13.55;;;-6.10;99.90;;;;;;5037061;28;20132;-88
2022/03/11 05:07:22;;;;;;;28.48;13.80;;;-6.10;99.90;;;;;;5037185;28;20048;-88
2022/03/11 05:09:48;;;;;;;31.20;13.57;;;-6.10;99.90;;;;;;5035807;28;20099;-88
2022/03/11 05:12:15;;;;;;;22.80;11.95;;;-6.10;99.90;;;;;;5035712;28;20049;-88
2022/03/11 05:14:42;;;;;;;25.27;12.32;;;-6.10;99.90;;;;;;5034245;28;20378;-88
2022/03/11 05:17:09;;;;;;;24.42;12.30;;;-6.10;99.90;;;;;;5035977;28;20541;-88
2022/03/11 05:19:36;;;;;;;27.45;13.48;;;-6.20;99.90;;;;;;5036058;28;20151;-89
2022/03/11 05:22:03;;;;;;;22.52;11.38;;;-6.20;99.90;;;;;;5036081;28;20047;-88
2022/03/11 05:24:30;;;;;;;23.02;13.80;;;-6.20;99.90;;;;;;5035993;28;20542;-88
2022/03/11 05:26:57;;;;;;;23.60;11.90;;;-6.20;99.90;;;;;;5035998;28;20078;-88
2022/03/11 05:29:24;;;;;;;22.98;11.52;;;-6.10;99.90;;;;;;5035775;28;20049;-88
2022/03/11 05:31:51;;;;;;;20.73;11.20;;;-6.20;99.90;;;;;;5036052;28;20452;-89
2022/03/11 05:34:20;;;;;;;19.67;11.30;;;-6.20;99.90;;;;;;5036250;28;20049;-87
2022/03/11 05:36:47;;;;;;;23.30;12.00;;;-6.20;99.90;;;;;;5039337;28;20069;-89
2022/03/11 05:39:14;;;;;;;22.75;11.75;;;-6.20;99.90;;;;;;5039644;28;20128;-88
2022/03/11 05:41:41;;;;;;;21.85;12.13;;;-6.20;99.90;;;;;;5039437;28;20049;-88
2022/03/11 05:44:08;;;;;;;33.70;12.82;;;-6.20;99.90;;;;;;5039179;28;20057;-88
2022/03/11 05:46:35;;;;;;;23.63;12.27;;;-6.20;99.90;;;;;;5039276;28;20547;-88
2022/03/11 05:49:02;;;;;;;27.83;12.40;;;-6.20;99.90;;;;;;5039300;28;20052;-88
2022/03/11 05:51:29;;;;;;;32.85;12.63;;;-6.10;99.90;;;;;;5038833;28;20476;-88
2022/03/11 05:53:55;;;;;;;25.95;12.20;;;-6.10;99.90;;;;;;5038701;28;20072;-88
2022/03/11 05:56:22;;;;;;;31.88;12.27;;;-6.10;99.90;;;;;;5038852;28;20440;-88
2022/03/11 05:58:50;;;;;;;26.90;12.32;;;-6.10;99.90;;;;;;5038697;28;20421;-88
2022/03/11 06:01:20;;;;;;;32.60;11.88;;;-6.10;99.90;;;;;;5038636;28;20462;-88
2022/03/11 06:03:47;;;;;;;26.63;11.73;;;-6.10;99.90;;;;;;5039156;28;20091;-88
2022/03/11 06:06:15;;;;;;;22.00;11.07;;;-6.10;99.90;;;;;;5038587;28;20382;-88
2022/03/11 06:08:42;;;;;;;34.90;11.85;;;-6.10;99.90;;;;;;5038344;28;20049;-88
2022/03/11 06:11:14;;;;;;;35.60;12.10;;;-6.10;99.90;;;;;;5039314;28;20390;-88
2022/03/11 06:13:41;;;;;;;22.30;11.77;;;-6.00;99.90;;;;;;5038225;28;20131;-88
2022/03/11 06:16:07;;;;;;;19.98;10.52;;;-6.00;99.90;;;;;;5038983;28;20107;-88
2022/03/11 06:18:34;;;;;;;38.50;11.85;;;-6.10;99.90;;;;;;5038391;28;20144;-88
2022/03/11 06:21:01;;;;;;;39.53;11.57;;;-6.00;99.90;;;;;;5038751;28;20135;-88
2022/03/11 06:23:30;;;;;;;27.50;11.18;;;-6.00;99.90;;;;;;5038261;28;20128;-88
2022/03/11 06:25:57;;;;;;;27.20;11.50;;;-6.00;99.90;;;;;;5038573;28;20048;-89
2022/03/11 06:28:24;;;;;;;61.60;12.85;;;-6.00;99.90;;;;;;5039913;28;20057;-88
2022/03/11 06:30:51;;;;;;;21.15;10.60;;;-5.90;99.90;;;;;;5038399;28;20090;-88
2022/03/11 06:33:20;;;;;;;16.92;10.25;;;-5.90;99.90;;;;;;5038321;28;20124;-88
2022/03/11 06:35:48;;;;;;;22.08;11.00;;;-5.80;99.90;;;;;;5038103;28;20064;-88
2022/03/11 06:38:15;;;;;;;24.92;10.27;;;-5.80;99.90;;;;;;5038634;28;20069;-89
2022/03/11 06:40:42;;;;;;;17.35;10.43;;;-5.80;99.90;;;;;;5038333;28;20059;-89
2022/03/11 06:43:09;;;;;;;25.85;10.85;;;-5.80;99.90;;;;;;5038280;28;20537;-88
2022/03/11 06:45:36;;;;;;;23.23;11.13;;;-5.70;99.90;;;;;;5037789;28;20187;-88
2022/03/11 06:48:03;;;;;;;18.80;10.10;;;-5.70;99.90;;;;;;5038014;28;20065;-89
2022/03/11 06:50:30;;;;;;;25.55;11.23;;;-5.70;99.90;;;;;;5038247;28;20045;-88
2022/03/11 06:52:57;;;;;;;18.08;10.18;;;-5.60;99.90;;;;;;5038096;28;20112;-89
2022/03/11 06:55:24;;;;;;;20.92;11.00;;;-5.60;99.90;;;;;;5038375;28;20076;-89
2022/03/11 06:57:51;;;;;;;22.85;10.25;;;-5.60;99.90;;;;;;5037599;28;20339;-89
2022/03/11 07:00:20;;;;;;;17.63;10.23;;;-5.50;99.90;;;;;;5037721;28;20049;-88
2022/03/11 07:02:47;;;;;;;16.77;9.45;;;-5.50;99.90;;;;;;5037591;28;20076;-89
2022/03/11 07:05:14;;;;;;;23.58;9.63;;;-5.40;99.90;;;;;;5037198;28;20067;-89
2022/03/11 07:07:41;;;;;;;17.77;9.60;;;-5.40;99.90;;;;;;5037078;28;20136;-89
2022/03/11 07:10:15;;;;;;;25.13;11.65;;;-5.30;99.90;;;;;;5037916;28;20057;-89
2022/03/11 07:12:43;;;;;;;20.25;9.30;;;-5.20;99.90;;;;;;5036473;28;20501;-89
2022/03/11 07:15:10;;;;;;;17.23;9.32;;;-5.00;99.90;;;;;;5036554;28;20476;-90
2022/03/11 07:17:36;;;;;;;17.70;8.75;;;-4.90;99.90;;;;;;5036795;28;20144;-89
2022/03/11 07:20:04;;;;;;;19.67;9.13;;;-4.80;99.90;;;;;;5037291;28;20572;-90
2022/03/11 07:22:34;;;;;;;16.40;8.82;;;-4.60;99.90;;;;;;5037002;28;20576;-91
2022/03/11 07:25:02;;;;;;;29.80;9.65;;;-4.20;99.90;;;;;;5037596;28;20056;-92
2022/03/11 07:27:29;;;;;;;19.80;8.80;;;-3.60;99.90;;;;;;5038024;28;20129;-92
2022/03/11 07:29:57;;;;;;;16.65;9.30;;;-3.00;99.90;;;;;;5037743;28;20137;-93
2022/03/11 07:32:24;;;;;;;14.43;8.13;;;-2.50;99.90;;;;;;5039004;28;20540;-94
2022/03/11 07:34:51;;;;;;;13.57;8.07;;;-1.80;99.90;;;;;;5037493;28;20122;-95
2022/03/11 07:37:21;;;;;;;12.02;7.13;;;-1.20;99.90;;;;;;5038977;28;20052;-93
2022/03/11 07:39:48;;;;;;;17.52;6.78;;;-0.60;99.90;;;;;;5040952;28;20057;-94
2022/03/11 07:42:15;;;;;;;12.60;6.03;;;0.00;99.90;;;;;;5042922;28;20095;-95
2022/03/11 07:44:44;;;;;;;8.25;5.70;;;0.40;99.90;;;;;;5043333;28;20049;-94
2022/03/11 07:47:11;;;;;;;9.13;5.50;;;1.00;99.90;;;;;;5039642;28;20056;-95
2022/03/11 07:49:38;;;;;;;9.73;5.45;;;1.80;99.90;;;;;;5037353;28;20087;-95
2022/03/11 07:52:07;;;;;;;19.67;5.65;;;2.70;99.90;;;;;;5038064;28;20131;-93
2022/03/11 07:54:33;;;;;;;8.50;5.10;;;3.30;97.70;;;;;;5036718;28;20500;-93
2022/03/11 07:57:00;;;;;;;13.23;4.82;;;5.10;89.70;;;;;;5036406;28;20461;-94
2022/03/11 07:59:31;;;;;;;13.50;4.82;;;6.10;76.40;;;;;;5035024;28;20132;-93
2022/03/11 08:01:59;;;;;;;5.78;4.25;;;6.40;68.60;;;;;;5038867;28;20045;-91
2022/03/11 08:04:26;;;;;;;15.15;6.25;;;7.80;66.50;;;;;;5038296;28;20083;-91
2022/03/11 08:06:54;;;;;;;15.50;5.40;;;9.20;61.50;;;;;;5035773;28;20072;-90
2022/03/11 08:09:21;;;;;;;9.60;4.88;;;9.70;58.70;;;;;;5035714;28;20112;-90
2022/03/11 08:11:48;;;;;;;17.90;5.65;;;10.80;56.30;;;;;;5035249;28;20069;-90
2022/03/11 08:14:14;;;;;;;35.78;7.13;;;10.80;54.60;;;;;;5035354;28;20074;-89
2022/03/11 08:16:41;;;;;;;9.68;4.75;;;11.60;53.30;;;;;;5035771;28;20063;-89
2022/03/11 08:19:09;;;;;;;12.65;5.60;;;12.20;50.00;;;;;;5035697;28;20045;-90
2022/03/11 08:21:47;;;;;;;17.50;5.95;;;13.20;49.30;;;;;;5037057;28;20044;-89
2022/03/11 08:24:14;;;;;;;52.30;10.07;;;13.90;47.20;;;;;;5035707;28;20049;-89
2022/03/11 08:26:42;;;;;;;18.45;6.38;;;14.70;45.70;;;;;;5035639;28;20072;-88
2022/03/11 08:29:09;;;;;;;21.13;6.22;;;15.10;43.40;;;;;;5035918;28;20577;-89
2022/03/11 08:31:44;;;;;;;28.15;8.65;;;16.50;41.50;;;;;;5037261;28;20049;-89
2022/03/11 08:34:12;;;;;;;26.40;7.38;;;17.30;36.40;;;;;;5035830;28;20053;-89
2022/03/11 08:36:39;;;;;;;23.48;7.47;;;16.50;36.00;;;;;;5035766;28;20065;-88
2022/03/11 08:39:08;;;;;;;18.50;5.78;;;16.90;35.20;;;;;;5036202;28;20057;-88
2022/03/11 08:41:35;;;;;;;32.17;7.10;;;17.00;35.60;;;;;;5035754;28;20508;-89
2022/03/11 08:44:03;;;;;;;10.93;4.45;;;16.50;36.50;;;;;;5035851;28;20067;-89
2022/03/11 08:46:30;;;;;;;7.88;4.07;;;15.60;35.20;;;;;;5035721;28;20065;-89
2022/03/11 08:48:57;;;;;;;21.00;5.72;;;17.50;34.40;;;;;;5035970;28;20413;-89
2022/03/11 08:51:24;;;;;;;12.25;4.35;;;19.00;30.80;;;;;;5035481;28;20175;-88
2022/03/11 08:53:51;;;;;;;5.18;3.53;;;17.70;29.80;;;;;;5035754;28;20141;-88
2022/03/11 08:56:21;;;;;;;4.88;3.67;;;17.40;29.60;;;;;;5035850;28;20049;-89
2022/03/11 08:58:51;;;;;;;5.53;4.05;;;16.80;29.50;;;;;;5035762;28;20547;-89
2022/03/11 09:01:18;;;;;;;16.55;4.75;;;16.30;30.00;;;;;;5035683;28;20444;-89
2022/03/11 09:03:45;;;;;;;9.38;7.30;;;16.70;32.70;;;;;;5035336;28;20059;-88
2022/03/11 09:06:13;;;;;;;6.10;4.13;;;16.80;30.30;;;;;;5035504;28;20041;-88
2022/03/11 09:08:40;;;;;;;6.68;4.93;;;16.30;30.90;;;;;;5035456;28;20143;-88
2022/03/11 09:11:06;;;;;;;16.17;4.80;;;17.40;30.10;;;;;;5039533;28;20080;-90
2022/03/11 09:13:33;;;;;;;9.68;5.15;;;18.50;29.80;;;;;;5039189;28;20132;-89
2022/03/11 09:16:00;;;;;;;6.22;3.80;;;18.40;29.20;;;;;;5039396;28;20052;-89
2022/03/11 09:18:27;;;;;;;10.85;4.50;;;18.50;29.10;;;;;;5039249;28;20091;-90
2022/03/11 09:20:55;;;;;;;13.05;4.65;;;17.80;28.20;;;;;;5039114;28;20136;-89
2022/03/11 09:23:22;;;;;;;8.15;4.50;;;16.90;29.50;;;;;;5039063;28;20084;-89
2022/03/11 09:25:50;;;;;;;12.02;5.65;;;16.90;29.40;;;;;;5039377;28;20467;-89
2022/03/11 09:28:16;;;;;;;11.75;4.78;;;17.70;29.40;;;;;;5039089;28;20143;-89
2022/03/11 09:30:43;;;;;;;11.52;5.22;;;16.80;29.60;;;;;;5039076;28;20140;-88
2022/03/11 09:33:10;;;;;;;7.95;3.88;;;17.00;29.00;;;;;;5038997;28;20103;-89
2022/03/11 09:35:37;;;;;;;8.13;3.97;;;18.20;30.00;;;;;;5056161;28;20139;-89
2022/03/11 09:38:04;;;;;;;7.20;4.07;;;19.20;28.70;;;;;;5056740;28;20132;-88
2022/03/11 09:40:33;;;;;;;8.52;4.10;;;19.70;28.30;;;;;;5056442;28;20049;-87
2022/03/11 09:43:01;;;;;;;5.30;4.20;;;19.70;27.70;;;;;;5056650;28;20099;-89
2022/03/11 09:45:28;;;;;;;4.80;3.33;;;20.30;26.80;;;;;;5038607;28;20457;-88
2022/03/11 09:47:55;;;;;;;4.15;3.75;;;19.90;26.80;;;;;;5056052;28;20130;-88
2022/03/11 09:50:27;;;;;;;4.53;3.47;;;19.90;26.80;;;;;;5039453;28;20049;-88
2022/03/11 09:52:55;;;;;;;8.85;3.55;;;18.70;26.20;;;;;;5056609;28;20053;-89
2022/03/11 09:55:21;;;;;;;4.45;3.70;;;18.20;27.10;;;;;;5038654;28;20131;-90
2022/03/11 09:57:49;;;;;;;26.27;5.50;;;18.20;29.70;;;;;;5038854;28;20045;-89
2022/03/11 10:00:16;;;;;;;4.38;3.97;;;16.90;27.80;;;;;;5038809;28;20052;-88
2022/03/11 10:02:45;;;;;;;5.57;3.40;;;17.20;29.80;;;;;;5038706;28;20068;-89
2022/03/11 10:05:13;;;;;;;7.05;3.75;;;17.30;27.10;;;;;;5056468;28;20053;-89
2022/03/11 10:08:04;;;;;;;7.72;4.82;;;18.50;28.60;;;;;;5039963;28;20099;-89
2022/03/11 10:10:31;;;;;;;10.77;4.40;;;17.40;29.00;;;;;;5038388;28;20049;-89
2022/03/11 10:13:08;;;;;;;6.38;4.32;;;18.60;28.30;;;;;;5039543;28;20081;-89
2022/03/11 10:15:36;;;;;;;7.30;3.83;;;19.10;27.50;;;;;;5038604;28;20056;-90
2022/03/11 10:18:07;;;;;;;5.93;4.15;;;19.50;27.10;;;;;;5038610;28;20417;-88
2022/03/11 10:20:34;;;;;;;3.92;3.50;;;19.30;26.90;;;;;;5037897;28;20048;-90
2022/03/11 10:23:11;;;;;;;7.15;4.22;;;18.70;26.90;;;;;;5038446;28;20052;-89
2022/03/11 10:25:38;;;;;;;7.10;4.57;;;18.40;26.70;;;;;;5056215;28;20680;-89
2022/03/11 10:28:12;;;;;;;7.38;4.22;;;18.60;27.10;;;;;;5038480;28;20386;-88
2022/03/11 10:30:42;;;;;;;5.32;3.55;;;18.50;27.00;;;;;;5038134;28;20467;-89
2022/03/11 10:33:12;;;;;;;8.65;4.18;;;20.20;27.00;;;;;;5038577;28;20087;-89
2022/03/11 10:35:41;;;;;;;8.82;3.75;;;20.20;25.50;;;;;;5037769;28;20406;-89
2022/03/11 10:38:16;;;;;;;8.70;4.05;;;20.80;26.70;;;;;;5038359;28;20119;-89
2022/03/11 10:40:54;;;;;;;7.70;3.83;;;20.00;25.90;;;;;;5038173;28;20072;-89
2022/03/11 10:43:27;;;;;;;7.10;3.65;;;18.80;26.20;;;;;;5037986;28;20057;-90
2022/03/11 10:45:55;;;;;;;8.88;3.80;;;20.30;25.50;;;;;;5055118;28;20048;-90
2022/03/11 10:48:44;;;;;;;7.82;4.78;;;21.00;25.20;;;;;;5037406;28;20045;-89
2022/03/11 10:51:13;;;;;;;4.22;3.67;;;19.40;26.50;;;;;;5037535;28;20513;-88
2022/03/11 10:53:40;;;;;;;9.25;4.07;;;19.60;26.60;;;;;;5037659;28;20045;-89
2022/03/11 10:56:08;;;;;;;4.70;4.18;;;18.80;27.00;;;;;;5037140;28;20126;-88
2022/03/11 10:58:36;;;;;;;5.80;3.88;;;18.90;27.40;;;;;;5037358;28;20049;-89
2022/03/11 11:01:04;;;;;;;5.18;4.60;;;19.30;27.30;;;;;;5037292;28;20431;-89
2022/03/11 11:03:32;;;;;;;7.15;4.38;;;19.60;26.20;;;;;;5037385;28;20045;-88
2022/03/11 11:05:59;;;;;;;6.05;4.78;;;20.20;26.30;;;;;;5037525;28;20049;-89
2022/03/11 11:08:27;;;;;;;6.25;4.28;;;20.10;26.50;;;;;;5037659;28;20131;-92
2022/03/11 11:10:54;;;;;;;7.25;4.60;;;20.40;27.10;;;;;;5036815;28;20076;-89
2022/03/11 11:13:20;;;;;;;9.90;5.15;;;19.40;27.60;;;;;;5036183;28;20083;-89
2022/03/11 11:15:54;;;;;;;8.23;4.57;;;19.90;26.90;;;;;;5054096;28;20143;-90
2022/03/11 11:18:21;;;;;;;;;;;19.60;26.90;;;;;;5054847;28;20136;-89
2022/03/11 11:20:51;;;;;;;5.15;4.65;;;19.00;27.70;;;;;;5036607;28;19921;-89
2022/03/11 11:23:19;;;;;;;11.55;5.20;;;19.50;28.00;;;;;;5036806;28;20072;-89
2022/03/11 11:25:50;;;;;;;5.85;4.78;;;19.80;27.00;;;;;;5036701;28;20049;-89
2022/03/11 11:28:22;;;;;;;9.88;4.90;;;20.00;26.30;;;;;;5036815;28;20053;-89
2022/03/11 11:30:54;;;;;;;10.70;4.40;;;20.20;27.60;;;;;;5036931;28;20049;-89
2022/03/11 11:33:21;;;;;;;9.85;4.80;;;21.30;27.00;;;;;;5035948;28;20091;-90
2022/03/11 11:35:56;;;;;;;6.15;4.75;;;19.70;27.40;;;;;;5036447;28;20140;-89
2022/03/11 11:38:34;;;;;;;12.45;4.80;;;19.60;27.80;;;;;;5036190;28;20048;-90
2022/03/11 11:41:21;;;;;;;8.73;4.10;;;20.90;26.60;;;;;;5036671;28;20095;-92
2022/03/11 11:43:57;;;;;;;6.07;4.03;;;20.10;26.30;;;;;;5036310;28;20088;-88
2022/03/11 11:46:24;;;;;;;6.80;4.85;;;20.30;26.10;;;;;;5032753;28;20132;-88
2022/03/11 11:48:51;;;;;;;7.50;4.03;;;19.60;26.20;;;;;;5036308;28;20489;-89
2022/03/11 11:51:32;;;;;;;7.47;4.70;;;19.70;26.60;;;;;;5036666;28;20497;-88
2022/03/11 11:54:11;;;;;;;6.38;4.60;;;18.80;27.40;;;;;;5036283;28;20113;-89
2022/03/11 11:56:52;;;;;;;7.85;4.57;;;17.90;27.90;;;;;;5036453;28;20059;-88
2022/03/11 11:59:25;;;;;;;8.48;4.40;;;18.30;28.00;;;;;;5036071;28;20083;-87
2022/03/11 12:01:55;;;;;;;11.30;4.55;;;18.90;28.00;;;;;;5036723;28;20106;-89
2022/03/11 12:04:27;;;;;;;5.13;4.35;;;20.10;28.70;;;;;;5036288;28;20557;-88
2022/03/11 12:06:58;;;;;;;8.50;4.63;;;19.00;27.50;;;;;;5053678;28;20044;-88
2022/03/11 12:12:07;;;;;;;11.75;4.88;;;18.30;28.20;;;;;;5053519;28;20053;-87
2022/03/11 12:15:00;;;;;;;7.88;4.72;;;18.00;28.50;;;;;;5035587;28;20505;-89
2022/03/11 12:17:36;;;;;;;5.53;4.78;;;17.40;29.70;;;;;;5035829;28;20127;-87
2022/03/11 12:20:27;;;;;;;8.20;4.93;;;18.40;29.10;;;;;;5036110;28;20057;-89
2022/03/11 12:23:00;;;;;;;6.70;4.57;;;18.40;29.20;;;;;;5036641;28;20123;-88
2022/03/11 12:25:29;;;;;;;9.32;4.50;;;18.90;28.90;;;;;;5054855;28;20049;-88
2022/03/11 12:28:00;;;;;;;9.40;4.47;;;18.80;28.60;;;;;;5035837;28;20088;-87
2022/03/11 12:30:31;;;;;;;8.18;4.70;;;18.00;28.00;;;;;;5035511;28;20041;-89
2022/03/11 12:33:04;;;;;;;7.53;4.30;;;18.20;28.40;;;;;;5036116;28;20106;-88
2022/03/11 12:35:31;;;;;;;10.83;4.10;;;19.60;27.60;;;;;;5036233;28;20095;-89
2022/03/11 12:37:58;;;;;;;5.90;4.88;;;18.30;26.50;;;;;;5035963;28;20075;-87
2022/03/11 12:40:30;;;;;;;4.50;4.10;;;18.20;27.80;;;;;;5053463;28;20404;-88
2022/03/11 12:43:05;;;;;;;8.90;3.72;;;17.40;27.80;;;;;;5035924;28;20084;-88